Time;durP1;ratioP1;P1;durP2;ratioP2;P2;SDS_P1;SDS_P2;PMS_P1;PMS_P2;Temp;Humidity;BMP_temperature;BMP_pressure;BME280_temperature;BME280_humidity;BME280_pressure;Samples;Min_cycle;Max_cycle;Signal;HPM_P1;HPM_P2
2022/03/04 00:03:45;;;;;;;0.20;0.10;;;10.20;99.90;;;;;;25421360;23;20172;-68
2022/03/04 00:13:49;;;;;;;0.20;0.10;;;9.80;99.90;;;;;;25445594;23;20179;-68
2022/03/04 00:23:54;;;;;;;0.20;0.10;;;9.40;99.90;;;;;;25446110;23;20167;-68
2022/03/04 00:33:58;;;;;;;0.20;0.00;;;9.30;99.90;;;;;;25445507;23;20254;-67
2022/03/04 00:44:04;;;;;;;0.20;0.10;;;9.00;99.90;;;;;;25445425;23;20168;-66
2022/03/04 00:54:09;;;;;;;1.50;1.40;;;9.00;99.90;;;;;;25445541;23;20199;-65
2022/03/04 01:04:14;;;;;;;0.20;0.03;;;9.00;99.90;;;;;;25455133;23;20174;-65
2022/03/04 01:14:18;;;;;;;0.20;0.00;;;9.00;99.90;;;;;;25457122;23;20195;-67
2022/03/04 01:24:23;;;;;;;0.20;0.03;;;8.90;99.90;;;;;;25455887;23;20164;-66
2022/03/04 01:34:27;;;;;;;0.20;0.00;;;9.40;99.90;;;;;;25430399;23;20210;-68
2022/03/04 01:44:32;;;;;;;0.20;0.00;;;9.30;99.90;;;;;;25456008;23;20179;-68
2022/03/04 01:54:36;;;;;;;0.20;0.07;;;9.50;99.90;;;;;;25454999;23;20203;-66
2022/03/04 02:04:43;;;;;;;0.20;0.00;;;9.70;99.90;;;;;;25454557;23;20175;-65
2022/03/04 02:14:46;;;;;;;0.20;0.10;;;9.70;99.90;;;;;;25428501;23;20175;-65
2022/03/04 02:24:52;;;;;;;0.20;0.10;;;9.60;99.90;;;;;;25454991;23;20163;-64
2022/03/04 02:34:56;;;;;;;0.20;0.10;;;9.60;99.90;;;;;;25452981;23;20199;-66
2022/03/04 02:45:01;;;;;;;0.20;0.00;;;9.50;99.90;;;;;;25453712;23;20172;-64
2022/03/04 02:55:05;;;;;;;0.20;0.10;;;9.80;99.90;;;;;;25452856;23;20203;-65
2022/03/04 03:05:12;;;;;;;0.20;0.00;;;9.80;99.90;;;;;;25453468;23;20167;-65
2022/03/04 03:15:16;;;;;;;0.20;0.00;;;9.60;99.90;;;;;;25451712;23;20786;-64
2022/03/04 03:25:21;;;;;;;0.20;0.00;;;9.30;99.90;;;;;;25451139;23;20178;-64
2022/03/04 03:35:25;;;;;;;0.20;0.00;;;9.30;99.90;;;;;;25450402;23;20211;-64
2022/03/04 03:45:30;;;;;;;0.20;0.00;;;9.20;99.90;;;;;;25449999;23;20167;-64
2022/03/04 03:55:34;;;;;;;0.20;0.03;;;9.10;99.90;;;;;;25450637;23;20195;-73
2022/03/04 04:05:39;;;;;;;0.20;0.00;;;8.80;99.90;;;;;;25450307;23;20163;-71
2022/03/04 04:15:43;;;;;;;11.93;10.93;;;8.80;99.90;;;;;;25450071;23;20203;-73
2022/03/04 04:25:48;;;;;;;0.20;0.00;;;8.30;99.90;;;;;;25449328;23;20164;-73
2022/03/04 04:35:52;;;;;;;0.20;0.10;;;8.70;99.90;;;;;;25448065;23;20199;-72
2022/03/04 04:45:57;;;;;;;0.20;0.00;;;8.70;99.90;;;;;;25448190;23;20163;-70
2022/03/04 04:56:02;;;;;;;0.20;0.00;;;8.80;99.90;;;;;;25449092;23;20196;-71
2022/03/04 05:06:07;;;;;;;0.20;0.10;;;8.90;99.90;;;;;;25447320;23;20182;-72
2022/03/04 05:16:11;;;;;;;0.20;0.10;;;8.70;99.90;;;;;;25445929;23;20170;-71
2022/03/04 05:26:18;;;;;;;0.20;0.10;;;8.30;99.90;;;;;;25446674;23;20191;-73
2022/03/04 05:36:23;;;;;;;0.20;0.07;;;8.40;99.90;;;;;;25446079;23;20243;-71
2022/03/04 05:46:28;;;;;;;0.20;0.10;;;8.60;99.90;;;;;;25447874;23;20187;-71
2022/03/04 05:56:32;;;;;;;0.20;0.00;;;8.50;99.90;;;;;;25449757;23;20287;-71
2022/03/04 06:06:37;;;;;;;0.20;0.00;;;8.50;99.90;;;;;;25451058;23;20191;-65
2022/03/04 06:16:41;;;;;;;0.20;0.00;;;8.60;99.90;;;;;;25449433;23;20453;-65
2022/03/04 06:26:46;;;;;;;0.20;0.00;;;8.60;99.90;;;;;;25446225;23;20188;-68
2022/03/04 06:36:50;;;;;;;0.20;0.10;;;8.90;99.90;;;;;;25445829;23;20207;-68
2022/03/04 06:46:55;;;;;;;0.20;0.10;;;9.30;99.90;;;;;;25419791;23;20196;-65
2022/03/04 06:56:59;;;;;;;0.20;0.10;;;9.70;99.90;;;;;;25440373;23;20195;-72
2022/03/04 07:07:04;;;;;;;0.20;0.10;;;10.10;99.90;;;;;;25436157;23;20203;-73
2022/03/04 07:17:08;;;;;;;0.20;0.10;;;10.40;99.90;;;;;;25440465;23;20181;-65
2022/03/04 07:27:13;;;;;;;0.20;0.10;;;10.70;99.90;;;;;;25444313;23;20192;-65
2022/03/04 07:37:17;;;;;;;0.30;0.30;;;10.90;99.90;;;;;;25441896;23;20223;-64
2022/03/04 07:47:23;;;;;;;0.20;0.10;;;11.00;99.90;;;;;;25442650;23;20191;-67
2022/03/04 07:57:26;;;;;;;0.20;0.10;;;11.30;99.90;;;;;;25441104;23;20200;-68
2022/03/04 08:07:32;;;;;;;0.20;0.10;;;11.40;99.90;;;;;;25442444;23;20191;-67
2022/03/04 08:17:35;;;;;;;0.20;0.10;;;11.50;99.90;;;;;;25441625;23;20182;-68
2022/03/04 08:27:42;;;;;;;0.20;0.10;;;11.70;99.90;;;;;;25441215;23;20511;-69
2022/03/04 08:37:46;;;;;;;0.20;0.10;;;11.90;99.90;;;;;;25417296;23;20191;-65
2022/03/04 08:47:51;;;;;;;0.20;0.10;;;12.20;99.90;;;;;;25442524;23;20187;-74
2022/03/04 08:57:54;;;;;;;0.20;0.10;;;12.60;99.90;;;;;;25442230;23;20903;-74
2022/03/04 09:08:00;;;;;;;0.20;0.10;;;13.10;99.90;;;;;;25442931;23;20194;-68
2022/03/04 09:18:04;;;;;;;0.20;0.00;;;13.30;99.90;;;;;;25441374;23;20182;-68
2022/03/04 09:28:11;;;;;;;0.20;0.10;;;13.70;99.90;;;;;;25448435;23;20203;-77
2022/03/04 09:38:15;;;;;;;0.20;0.00;;;14.20;99.90;;;;;;25449795;23;20243;-81
2022/03/04 09:48:20;;;;;;;0.20;0.00;;;14.70;99.90;;;;;;25421954;23;20214;-78
2022/03/04 09:58:24;;;;;;;0.20;0.00;;;15.30;99.90;;;;;;25433155;23;20226;-74
2022/03/04 10:08:29;;;;;;;0.20;0.00;;;15.80;99.90;;;;;;25432924;23;20271;-77
2022/03/04 10:18:34;;;;;;;0.20;0.00;;;16.20;99.90;;;;;;25433055;23;20160;-77
2022/03/04 10:28:49;;;;;;;0.20;0.00;;;15.90;99.90;;;;;;25429916;23;20234;-66
2022/03/04 10:39:07;;;;;;;0.20;0.10;;;16.80;99.90;;;;;;25428343;23;20218;-66
2022/03/04 10:49:24;;;;;;;0.20;0.10;;;17.40;99.90;;;;;;25403460;23;20188;-65
2022/03/04 10:59:28;;;;;;;0.20;0.10;;;17.50;99.90;;;;;;25432090;23;20200;-76
2022/03/04 11:09:33;;;;;;;0.20;0.10;;;17.90;99.90;;;;;;25433308;23;20232;-75
2022/03/04 11:19:37;;;;;;;0.20;0.10;;;18.00;99.90;;;;;;25404183;23;20384;-74
2022/03/04 11:29:42;;;;;;;0.20;0.00;;;18.00;99.90;;;;;;25430284;23;20195;-75
2022/03/04 11:40:05;;;;;;;0.20;0.00;;;19.30;99.90;;;;;;25403475;23;20186;-70
2022/03/04 11:50:31;;;;;;;0.20;0.10;;;19.00;99.90;;;;;;25427335;23;20207;-70
2022/03/04 12:00:37;;;;;;;0.83;0.83;;;18.70;99.90;;;;;;25403067;23;20164;-75
2022/03/04 12:10:56;;;;;;;0.20;0.10;;;18.10;99.90;;;;;;25427188;23;20247;-76
2022/03/04 12:21:07;;;;;;;0.20;0.10;;;19.00;99.90;;;;;;25428183;23;20167;-73
2022/03/04 12:31:25;;;;;;;0.20;0.10;;;18.30;99.90;;;;;;25422594;23;20213;-80
2022/03/04 12:41:31;;;;;;;0.30;0.30;;;18.30;99.90;;;;;;25427063;23;20223;-76
2022/03/04 12:51:37;;;;;;;0.20;0.20;;;18.00;99.90;;;;;;25425331;23;20219;-76
2022/03/04 13:01:45;;;;;;;0.20;0.10;;;17.70;99.90;;;;;;25434279;23;20160;-77
2022/03/04 13:11:52;;;;;;;0.80;0.80;;;17.40;99.90;;;;;;25435400;23;20187;-79
2022/03/04 13:22:00;;;;;;;0.20;0.10;;;17.80;99.90;;;;;;25434594;23;20172;-78
2022/03/04 13:32:08;;;;;;;0.20;0.07;;;17.80;99.90;;;;;;25400106;23;20199;-79
2022/03/04 13:42:21;;;;;;;0.20;0.00;;;18.20;99.90;;;;;;25426351;23;20172;-73
2022/03/04 13:52:26;;;;;;;0.40;0.40;;;17.90;99.90;;;;;;25433648;23;20301;-76
2022/03/04 14:02:39;;;;;;;0.67;0.60;;;17.20;99.90;;;;;;25434592;23;20178;-78
2022/03/04 14:12:46;;;;;;;0.40;0.33;;;16.90;99.90;;;;;;25406993;23;20194;-74
2022/03/04 14:22:49;;;;;;;0.20;0.10;;;16.60;99.90;;;;;;25433293;23;20172;-77
2022/03/04 14:32:56;;;;;;;0.20;0.10;;;16.00;99.90;;;;;;25406257;23;20218;-75
2022/03/04 14:43:01;;;;;;;0.20;0.10;;;16.10;99.90;;;;;;25407570;23;20202;-74
2022/03/04 15:03:34;;;;;;;0.20;0.00;;;16.30;99.90;;;;;;25340050;23;20200;-66
2022/03/04 15:13:38;;;;;;;0.20;0.00;;;15.80;99.90;;;;;;25307506;23;20212;-65
2022/03/04 15:23:44;;;;;;;0.20;0.00;;;15.20;99.90;;;;;;25306227;23;20165;-66
2022/03/04 15:34:07;;;;;;;0.20;0.10;;;14.70;99.90;;;;;;25281277;23;20219;-65
2022/03/04 15:44:12;;;;;;;0.20;0.00;;;14.70;99.90;;;;;;25306442;23;20169;-66
2022/03/04 15:54:17;;;;;;;0.20;0.10;;;14.80;99.90;;;;;;25278171;23;20204;-67
2022/03/04 16:04:22;;;;;;;0.20;0.10;;;14.90;99.90;;;;;;25399702;23;20191;-66
2022/03/04 16:14:26;;;;;;;0.20;0.00;;;14.90;99.90;;;;;;25426310;23;20199;-66
2022/03/04 16:24:31;;;;;;;0.20;0.10;;;14.80;99.90;;;;;;25424632;23;20171;-67
2022/03/04 16:34:38;;;;;;;0.20;0.07;;;14.90;99.90;;;;;;25423052;23;20210;-66
2022/03/04 16:44:44;;;;;;;0.20;0.00;;;14.60;99.90;;;;;;25426636;23;20151;-68
2022/03/04 16:54:49;;;;;;;0.20;0.00;;;14.50;99.90;;;;;;25421776;23;20191;-65
2022/03/04 17:04:54;;;;;;;0.20;0.10;;;14.60;99.90;;;;;;25398017;23;20211;-75
2022/03/04 17:14:58;;;;;;;0.20;0.10;;;14.70;99.90;;;;;;25424016;23;20187;-74
2022/03/04 17:25:04;;;;;;;0.20;0.00;;;14.60;99.90;;;;;;25401066;23;20171;-76
2022/03/04 17:35:11;;;;;;;0.20;0.10;;;14.50;99.90;;;;;;25428620;23;20226;-79
2022/03/04 17:45:16;;;;;;;0.20;0.10;;;14.40;99.90;;;;;;25437660;23;20164;-74
2022/03/04 17:55:20;;;;;;;0.20;0.10;;;14.30;99.90;;;;;;25416819;23;20203;-78
2022/03/04 18:05:26;;;;;;;0.20;0.00;;;14.20;99.90;;;;;;25443375;23;20199;-78
2022/03/04 18:15:29;;;;;;;0.20;0.00;;;14.20;99.90;;;;;;25445255;23;20195;-77
2022/03/04 18:25:35;;;;;;;0.20;0.00;;;14.10;99.90;;;;;;25445135;23;20182;-67
2022/03/04 18:35:39;;;;;;;0.20;0.10;;;13.90;99.90;;;;;;25445785;23;20207;-79
2022/03/04 18:45:47;;;;;;;0.20;0.00;;;13.80;99.90;;;;;;25445800;23;20163;-80
2022/03/04 18:55:50;;;;;;;0.20;0.10;;;13.90;99.90;;;;;;25415574;23;20286;-80
2022/03/04 19:05:55;;;;;;;0.20;0.07;;;13.90;99.90;;;;;;25441391;23;20192;-77
2022/03/04 19:15:59;;;;;;;0.20;0.00;;;13.90;99.90;;;;;;25442043;23;20192;-69
2022/03/04 19:26:05;;;;;;;0.20;0.10;;;13.80;99.90;;;;;;25440341;23;20245;-70
2022/03/04 19:36:17;;;;;;;2.67;2.57;;;13.70;99.90;;;;;;25414392;23;20207;-69
2022/03/04 19:46:25;;;;;;;0.20;0.03;;;13.70;99.90;;;;;;25440504;23;20159;-70
2022/03/04 19:56:35;;;;;;;0.20;0.10;;;13.70;99.90;;;;;;25438825;23;20198;-68
2022/03/04 20:06:43;;;;;;;0.20;0.07;;;13.70;99.90;;;;;;25410524;23;20183;-70
2022/03/04 20:16:46;;;;;;;0.20;0.10;;;13.00;99.90;;;;;;25437053;23;20191;-70
2022/03/04 20:26:52;;;;;;;0.20;0.10;;;13.00;99.90;;;;;;25411491;23;20172;-71
2022/03/04 20:36:56;;;;;;;0.20;0.00;;;12.90;99.90;;;;;;25435293;23;20214;-68
2022/03/04 20:47:02;;;;;;;0.20;0.10;;;12.80;99.90;;;;;;25433805;23;20168;-67
2022/03/04 20:57:06;;;;;;;0.20;0.00;;;12.90;99.90;;;;;;25438532;23;20390;-67
2022/03/04 21:07:11;;;;;;;0.20;0.00;;;12.90;99.90;;;;;;25439649;23;20171;-69
2022/03/04 21:17:15;;;;;;;0.20;0.10;;;12.80;99.90;;;;;;25403603;23;20270;-66
2022/03/04 21:27:20;;;;;;;0.20;0.00;;;12.80;99.90;;;;;;25448542;23;20168;-68
2022/03/04 21:37:25;;;;;;;0.20;0.10;;;12.90;99.90;;;;;;25447332;23;20207;-66
2022/03/04 21:47:30;;;;;;;0.20;0.00;;;12.60;99.90;;;;;;25447099;23;20178;-67
2022/03/04 21:57:34;;;;;;;0.20;0.10;;;12.50;99.90;;;;;;25423007;23;20184;-67
2022/03/04 22:07:39;;;;;;;0.20;0.10;;;12.30;99.90;;;;;;25448096;23;20167;-67
2022/03/04 22:17:43;;;;;;;0.20;0.10;;;12.00;99.90;;;;;;25483291;23;20214;-67
2022/03/04 22:27:48;;;;;;;0.20;0.10;;;11.90;99.90;;;;;;25570498;23;20166;-67
2022/03/04 22:37:52;;;;;;;0.20;0.10;;;11.90;99.90;;;;;;25569362;23;20194;-66
2022/03/04 22:47:57;;;;;;;0.20;0.10;;;11.70;99.90;;;;;;25568282;23;20178;-76
2022/03/04 22:58:01;;;;;;;0.20;0.10;;;11.70;99.90;;;;;;25543276;23;20191;-76
2022/03/04 23:08:11;;;;;;;0.20;0.10;;;11.90;99.90;;;;;;25569270;23;20178;-70
2022/03/04 23:18:15;;;;;;;0.20;0.10;;;11.90;99.90;;;;;;25542755;23;20778;-71
2022/03/04 23:28:25;;;;;;;0.20;0.10;;;11.80;99.90;;;;;;25567511;23;20182;-68
2022/03/04 23:38:30;;;;;;;0.20;0.10;;;11.90;99.90;;;;;;25568585;23;20193;-69
2022/03/04 23:48:35;;;;;;;0.20;0.10;;;12.10;99.90;;;;;;25571959;23;20175;-68
2022/03/04 23:58:39;;;;;;;0.20;0.10;;;12.40;99.90;;;;;;25546446;23;20183;-67
